createdAt,value
2022-11-24T00:01:30.554Z,9.18
2022-11-24T00:04:02.834Z,9.17
2022-11-24T00:06:29.895Z,9.18
2022-11-24T00:08:57.166Z,9.16
2022-11-24T00:11:29.118Z,9.20
2022-11-24T00:13:56.176Z,9.24
2022-11-24T00:16:24.079Z,9.25
2022-11-24T00:18:56.016Z,9.25
2022-11-24T00:21:23.367Z,9.25
2022-11-24T00:23:50.617Z,9.25
2022-11-24T00:26:25.131Z,9.25
2022-11-24T00:28:53.490Z,9.24
2022-11-24T00:31:35.098Z,9.23
2022-11-24T00:34:04.394Z,9.23
2022-11-24T00:36:32.861Z,9.22
2022-11-24T00:39:02.164Z,9.23
2022-11-24T00:41:29.505Z,9.23
2022-11-24T00:43:56.859Z,9.23
2022-11-24T00:46:23.897Z,9.26
2022-11-24T00:48:50.927Z,9.25
2022-11-24T00:51:19.127Z,9.29
2022-11-24T00:53:45.595Z,9.27
2022-11-24T00:56:12.520Z,9.25
2022-11-24T00:58:39.557Z,9.28
2022-11-24T01:01:12.671Z,9.31
2022-11-24T01:03:39.662Z,9.32
2022-11-24T01:06:14.841Z,9.29
2022-11-24T01:08:42.287Z,9.25
2022-11-24T01:11:17.949Z,9.21
2022-11-24T01:13:47.048Z,9.18
2022-11-24T01:16:25.842Z,9.18
2022-11-24T01:18:52.896Z,9.17
2022-11-24T01:21:20.288Z,9.16
2022-11-24T01:23:46.932Z,9.12
2022-11-24T01:26:18.659Z,9.15
2022-11-24T01:28:47.594Z,9.13
2022-11-24T01:31:15.531Z,9.11
2022-11-24T01:33:42.334Z,9.10
2022-11-24T01:36:08.774Z,9.09
2022-11-24T01:38:35.281Z,9.07
2022-11-24T01:41:08.476Z,9.08
2022-11-24T01:43:34.934Z,9.06
2022-11-24T01:46:39.064Z,9.08
2022-11-24T01:49:08.534Z,9.03
2022-11-24T01:51:42.298Z,9.00
2022-11-24T01:54:14.045Z,8.98
2022-11-24T01:56:43.548Z,8.96
2022-11-24T01:59:13.858Z,9.01
2022-11-24T02:01:40.396Z,9.02
2022-11-24T02:04:11.516Z,9.03
2022-11-24T02:06:40.781Z,9.04
2022-11-24T02:09:10.509Z,9.02
2022-11-24T02:11:40.419Z,9.00
2022-11-24T02:14:10.377Z,9.00
2022-11-24T02:16:37.379Z,9.00
2022-11-24T02:19:14.623Z,9.05
2022-11-24T02:21:41.149Z,9.04
2022-11-24T02:24:21.818Z,9.06
2022-11-24T02:26:49.650Z,9.08
2022-11-24T02:29:16.055Z,9.06
2022-11-24T02:31:47.987Z,9.09
2022-11-24T02:34:14.636Z,9.11
2022-11-24T02:36:41.031Z,9.11
2022-11-24T02:39:14.790Z,9.14
2022-11-24T02:41:59.406Z,9.16
2022-11-24T02:44:30.437Z,9.16
2022-11-24T02:47:09.154Z,9.18
2022-11-24T02:49:36.092Z,9.19
2022-11-24T02:52:03.284Z,9.20
2022-11-24T02:54:29.704Z,9.22
2022-11-24T02:56:56.487Z,9.20
2022-11-24T02:59:23.354Z,9.20
2022-11-24T03:01:49.964Z,9.20
2022-11-24T03:04:16.409Z,9.20
2022-11-24T03:06:43.355Z,9.23
2022-11-24T03:09:11.391Z,9.25
2022-11-24T03:11:38.894Z,9.24
2022-11-24T03:14:06.051Z,9.25
2022-11-24T03:16:33.079Z,9.22
2022-11-24T03:18:59.762Z,9.23
2022-11-24T03:21:29.182Z,9.22
2022-11-24T03:23:55.604Z,9.24
2022-11-24T03:26:23.921Z,9.19
2022-11-24T03:28:55.653Z,9.20
2022-11-24T03:31:23.501Z,9.18
2022-11-24T03:33:50.035Z,9.20
2022-11-24T03:36:16.800Z,9.22
2022-11-24T03:38:43.628Z,9.22
2022-11-24T03:41:14.879Z,9.20
2022-11-24T03:43:44.037Z,9.20
2022-11-24T03:46:11.910Z,9.18
2022-11-24T03:48:38.380Z,9.17
2022-11-24T03:51:04.919Z,9.18
2022-11-24T03:53:33.591Z,9.19
2022-11-24T03:56:00.851Z,9.18
2022-11-24T03:58:27.807Z,9.15
2022-11-24T04:00:55.909Z,9.11
2022-11-24T04:03:22.487Z,9.14
2022-11-24T04:05:49.293Z,9.16
2022-11-24T04:08:16.231Z,9.14
2022-11-24T04:10:43.119Z,9.18
2022-11-24T04:13:15.137Z,9.18
2022-11-24T04:15:43.057Z,9.20
2022-11-24T04:18:11.473Z,9.24
2022-11-24T04:20:38.516Z,9.28
2022-11-24T04:23:04.997Z,9.27
2022-11-24T04:25:31.872Z,9.27
2022-11-24T04:27:58.390Z,9.25
2022-11-24T04:30:26.428Z,9.27
2022-11-24T04:32:53.142Z,9.25
2022-11-24T04:35:19.810Z,9.27
2022-11-24T04:37:46.598Z,9.28
2022-11-24T04:40:13.578Z,9.29
2022-11-24T04:42:40.102Z,9.31
2022-11-24T04:45:07.494Z,9.31
2022-11-24T04:47:34.048Z,9.32
2022-11-24T04:50:00.466Z,9.35
2022-11-24T04:52:27.015Z,9.33
2022-11-24T04:54:53.604Z,9.35
2022-11-24T04:57:22.839Z,9.37
2022-11-24T04:59:53.030Z,9.38
2022-11-24T05:02:23.316Z,9.36
2022-11-24T05:04:49.816Z,9.40
2022-11-24T05:07:19.000Z,9.41
2022-11-24T05:10:05.208Z,9.42
2022-11-24T05:12:31.706Z,9.41
2022-11-24T05:14:59.499Z,9.42
2022-11-24T05:17:31.427Z,9.42
2022-11-24T05:19:58.350Z,9.39
2022-11-24T05:22:25.301Z,9.35
2022-11-24T05:24:51.713Z,9.34
2022-11-24T05:27:18.121Z,9.27
2022-11-24T05:29:44.452Z,9.25
2022-11-24T05:32:10.931Z,9.23
2022-11-24T05:34:37.849Z,9.23
2022-11-24T05:37:04.775Z,9.20
2022-11-24T05:39:32.871Z,9.14
2022-11-24T05:41:59.538Z,9.10
2022-11-24T05:44:25.976Z,9.09
2022-11-24T05:46:52.383Z,9.08
2022-11-24T05:49:19.301Z,9.06
2022-11-24T05:51:45.701Z,9.06
2022-11-24T05:54:12.038Z,9.08
2022-11-24T05:56:38.459Z,9.06
2022-11-24T05:59:09.612Z,9.02
2022-11-24T06:01:36.515Z,9.00
2022-11-24T06:04:02.944Z,8.95
2022-11-24T06:06:29.383Z,8.92
2022-11-24T06:08:55.740Z,8.88
2022-11-24T06:11:25.311Z,8.84
2022-11-24T06:13:51.747Z,8.83
2022-11-24T06:16:18.586Z,8.79
2022-11-24T06:18:45.148Z,8.75
2022-11-24T06:21:14.356Z,8.74
2022-11-24T06:23:40.940Z,8.73
2022-11-24T06:26:07.724Z,8.70
2022-11-24T06:28:34.058Z,8.70
2022-11-24T06:31:04.204Z,8.69
2022-11-24T06:33:33.428Z,8.67
2022-11-24T06:36:05.374Z,8.65
2022-11-24T06:38:32.528Z,8.68
2022-11-24T06:41:11.819Z,8.68
2022-11-24T06:43:38.614Z,8.61
2022-11-24T06:46:05.491Z,8.59
2022-11-24T06:48:32.113Z,8.59
2022-11-24T06:51:03.576Z,8.57
2022-11-24T06:53:31.509Z,8.53
2022-11-24T06:56:02.061Z,8.51
2022-11-24T06:58:28.428Z,8.48
2022-11-24T07:00:54.881Z,8.47
2022-11-24T07:03:21.665Z,8.50
2022-11-24T07:05:48.133Z,8.51
2022-11-24T07:08:17.969Z,8.53
2022-11-24T07:10:44.701Z,8.51
2022-11-24T07:13:11.166Z,8.53
2022-11-24T07:15:37.609Z,8.50
2022-11-24T07:18:09.837Z,8.47
2022-11-24T07:20:39.072Z,8.52
2022-11-24T07:23:06.680Z,8.47
2022-11-24T07:25:33.034Z,8.47
2022-11-24T07:27:59.954Z,8.48
2022-11-24T07:30:27.694Z,8.49
2022-11-24T07:33:01.474Z,8.53
2022-11-24T07:35:29.186Z,8.56
2022-11-24T07:37:56.694Z,8.58
2022-11-24T07:40:24.017Z,8.61
2022-11-24T07:42:50.569Z,8.61
2022-11-24T07:45:17.053Z,8.63
2022-11-24T07:47:43.582Z,8.65
2022-11-24T07:50:11.273Z,8.66
2022-11-24T07:52:38.404Z,8.68
2022-11-24T07:55:05.541Z,8.68
2022-11-24T07:57:31.960Z,8.69
2022-11-24T07:59:58.271Z,8.68
2022-11-24T08:02:24.694Z,8.72
2022-11-24T08:04:51.311Z,8.74
2022-11-24T08:07:17.776Z,8.77
2022-11-24T08:09:44.237Z,8.79
2022-11-24T08:12:10.567Z,8.82
2022-11-24T08:14:37.066Z,8.83
2022-11-24T08:17:03.839Z,8.86
2022-11-24T08:19:32.992Z,8.94
2022-11-24T08:21:59.357Z,8.92
2022-11-24T08:24:27.335Z,8.94
2022-11-24T08:26:53.753Z,8.90
2022-11-24T08:29:20.219Z,8.88
2022-11-24T08:31:46.638Z,8.90
2022-11-24T08:34:13.156Z,8.88
2022-11-24T08:36:39.713Z,8.85
2022-11-24T08:39:06.272Z,8.82
2022-11-24T08:41:33.231Z,8.84
2022-11-24T08:43:59.604Z,8.84
2022-11-24T08:46:26.041Z,8.85
2022-11-24T08:48:55.658Z,8.92
2022-11-24T08:51:27.287Z,9.08
2022-11-24T08:53:58.350Z,9.30
2022-11-24T08:56:29.974Z,9.49
2022-11-24T08:58:57.125Z,9.65
2022-11-24T09:01:24.759Z,9.80
2022-11-24T09:03:52.128Z,9.85
2022-11-24T09:06:22.764Z,10.03
2022-11-24T09:08:49.884Z,10.28
2022-11-24T09:11:17.211Z,10.44
2022-11-24T09:13:44.551Z,10.74
2022-11-24T09:16:19.002Z,10.95
2022-11-24T09:18:48.920Z,11.27
2022-11-24T09:21:18.806Z,11.58
2022-11-24T09:23:50.232Z,11.79
2022-11-24T09:26:20.449Z,12.01
2022-11-24T09:28:48.016Z,12.16
2022-11-24T09:31:20.639Z,12.35
2022-11-24T09:33:47.261Z,12.51
2022-11-24T09:36:14.552Z,12.64
2022-11-24T09:38:41.353Z,12.79
2022-11-24T09:41:23.126Z,12.91
2022-11-24T09:44:14.774Z,13.04
2022-11-24T09:47:18.494Z,13.18
2022-11-24T09:49:58.411Z,13.32
2022-11-24T09:52:48.135Z,13.67
2022-11-24T09:55:39.768Z,14.07
2022-11-24T09:58:18.563Z,14.34
2022-11-24T10:00:46.657Z,14.76
2022-11-24T10:03:19.708Z,15.23
2022-11-24T10:05:50.189Z,15.55
2022-11-24T10:08:33.279Z,15.90
2022-11-24T10:11:02.793Z,16.07
2022-11-24T10:14:06.953Z,16.21
2022-11-24T10:16:36.408Z,16.00
2022-11-24T10:19:37.905Z,15.98
2022-11-24T10:22:22.312Z,15.62
2022-11-24T10:25:07.909Z,15.73
2022-11-24T10:27:39.198Z,15.91
2022-11-24T10:30:15.415Z,16.11
2022-11-24T10:32:46.541Z,16.33
2022-11-24T10:35:22.407Z,16.56
2022-11-24T10:37:53.682Z,16.71
2022-11-24T10:40:57.413Z,16.80
2022-11-24T10:43:28.466Z,16.88
2022-11-24T10:46:04.954Z,17.02
2022-11-24T10:48:49.588Z,17.05
2022-11-24T10:51:28.009Z,16.74
2022-11-24T10:54:01.478Z,16.13
2022-11-24T10:56:38.733Z,15.65
2022-11-24T10:59:20.538Z,15.16
2022-11-24T11:01:47.254Z,15.11
2022-11-24T11:04:31.636Z,15.13
2022-11-24T11:07:30.249Z,15.43
2022-11-24T11:10:22.725Z,16.10
2022-11-24T11:12:49.313Z,16.51
2022-11-24T11:15:41.919Z,16.82
2022-11-24T11:18:16.156Z,16.97
2022-11-24T11:20:50.536Z,17.18
2022-11-24T11:23:23.911Z,17.47
2022-11-24T11:25:50.434Z,17.81
2022-11-24T11:28:30.018Z,18.23
2022-11-24T11:31:22.030Z,18.38
2022-11-24T11:34:26.730Z,18.39
2022-11-24T11:36:57.243Z,18.24
2022-11-24T11:39:35.556Z,18.39
2022-11-24T11:42:45.373Z,18.63
2022-11-24T11:45:05.520Z,18.80
2022-11-24T11:47:41.544Z,18.97
2022-11-24T11:50:16.452Z,19.37
2022-11-24T11:52:59.559Z,19.59
2022-11-24T11:55:34.018Z,19.65
2022-11-24T11:58:21.644Z,19.62
2022-11-24T12:01:17.146Z,19.52
2022-11-24T12:03:59.752Z,19.50
2022-11-24T12:07:03.533Z,19.64
2022-11-24T12:10:06.727Z,19.69
2022-11-24T12:13:03.376Z,19.57
2022-11-24T12:15:53.101Z,19.54
2022-11-24T12:21:26.566Z,19.29
2022-11-24T12:24:00.707Z,19.50
2022-11-24T12:26:30.027Z,19.29
2022-11-24T12:29:08.550Z,19.12
2022-11-24T12:32:08.276Z,19.24
2022-11-24T12:34:46.611Z,19.22
2022-11-24T12:37:35.060Z,19.01
2022-11-24T12:40:01.387Z,19.09
2022-11-24T12:43:06.891Z,19.27
2022-11-24T12:46:20.281Z,19.23
2022-11-24T12:49:08.582Z,19.18
2022-11-24T12:51:52.075Z,19.08
2022-11-24T12:54:21.010Z,19.04
2022-11-24T12:57:12.501Z,18.88
2022-11-24T13:00:07.749Z,18.66
2022-11-24T13:02:49.382Z,18.40
2022-11-24T13:05:27.844Z,18.57
2022-11-24T13:08:01.340Z,18.63
2022-11-24T13:13:19.688Z,18.55
2022-11-24T13:18:57.214Z,18.36
2022-11-24T13:21:47.185Z,18.21
2022-11-24T13:24:16.936Z,18.03
2022-11-24T13:26:49.514Z,17.94
2022-11-24T13:29:28.516Z,17.77
2022-11-24T13:32:15.341Z,17.62
2022-11-24T13:34:49.826Z,17.59
2022-11-24T13:37:40.435Z,17.34
2022-11-24T13:40:13.294Z,16.88
2022-11-24T13:42:54.798Z,16.52
2022-11-24T13:45:39.770Z,16.09
2022-11-24T13:48:22.683Z,15.82
2022-11-24T13:50:53.273Z,15.70
2022-11-24T13:53:34.984Z,15.57
2022-11-24T13:56:09.581Z,15.41
2022-11-24T13:58:41.046Z,15.31
2022-11-24T14:01:17.768Z,15.25
2022-11-24T14:04:35.000Z,15.25
2022-11-24T14:07:14.363Z,15.21
2022-11-24T14:09:44.863Z,15.14
2022-11-24T14:12:26.644Z,15.05
2022-11-24T14:14:56.830Z,15.00
2022-11-24T14:17:27.735Z,14.94
2022-11-24T14:19:58.764Z,14.84
2022-11-24T14:22:40.277Z,14.67
2022-11-24T14:25:30.702Z,14.62
2022-11-24T14:27:59.061Z,14.61
2022-11-24T14:30:26.394Z,14.52
2022-11-24T14:32:55.230Z,14.38
2022-11-24T14:35:30.360Z,14.26
2022-11-24T14:37:57.127Z,14.20
2022-11-24T14:40:46.005Z,14.10
2022-11-24T14:43:32.825Z,14.06
2022-11-24T14:46:02.655Z,14.03
2022-11-24T14:48:32.267Z,14.01
2022-11-24T14:51:15.969Z,13.95
2022-11-24T14:53:45.340Z,13.88
2022-11-24T14:56:33.183Z,13.88
2022-11-24T14:58:59.950Z,13.76
2022-11-24T15:01:26.421Z,13.71
2022-11-24T15:04:26.491Z,13.67
2022-11-24T15:07:25.494Z,13.66
2022-11-24T15:09:54.852Z,13.64
2022-11-24T15:12:30.523Z,13.58
2022-11-24T15:15:01.469Z,13.57
2022-11-24T15:17:29.432Z,13.56
2022-11-24T15:20:07.852Z,13.50
2022-11-24T15:22:36.707Z,13.44
2022-11-24T15:25:24.146Z,13.40
2022-11-24T15:27:51.272Z,13.33
2022-11-24T15:30:17.772Z,13.28
2022-11-24T15:32:50.811Z,13.16
2022-11-24T15:35:17.246Z,13.10
2022-11-24T15:37:43.661Z,13.03
2022-11-24T15:40:11.742Z,13.00
2022-11-24T15:42:38.156Z,12.90
2022-11-24T15:45:05.546Z,12.79
2022-11-24T15:47:31.891Z,12.73
2022-11-24T15:49:58.275Z,12.72
2022-11-24T15:52:24.662Z,12.68
2022-11-24T15:54:55.384Z,12.61
2022-11-24T15:57:21.824Z,12.54
2022-11-24T15:59:48.279Z,12.46
2022-11-24T16:02:14.706Z,12.41
2022-11-24T16:04:41.643Z,12.37
2022-11-24T16:07:14.740Z,12.33
2022-11-24T16:09:41.201Z,12.24
2022-11-24T16:12:10.804Z,12.16
2022-11-24T16:14:37.472Z,12.10
2022-11-24T16:17:05.162Z,12.13
2022-11-24T16:19:42.053Z,12.08
2022-11-24T16:22:12.083Z,12.01
2022-11-24T16:24:39.243Z,11.96
2022-11-24T16:27:05.586Z,11.82
2022-11-24T16:29:36.907Z,11.84
2022-11-24T16:32:05.191Z,11.80
2022-11-24T16:34:31.904Z,11.77
2022-11-24T16:36:58.456Z,11.73
2022-11-24T16:39:24.831Z,11.63
2022-11-24T16:41:51.252Z,11.65
2022-11-24T16:44:17.607Z,11.62
2022-11-24T16:46:44.687Z,11.59
2022-11-24T16:49:11.152Z,11.57
2022-11-24T16:51:37.792Z,11.51
2022-11-24T16:54:04.406Z,11.50
2022-11-24T16:56:31.434Z,11.50
2022-11-24T16:58:57.879Z,11.47
2022-11-24T17:01:25.831Z,11.39
2022-11-24T17:03:52.282Z,11.45
2022-11-24T17:06:19.084Z,11.41
2022-11-24T17:08:49.209Z,11.36
2022-11-24T17:11:19.591Z,11.29
2022-11-24T17:13:47.323Z,11.23
2022-11-24T17:16:16.711Z,11.19
2022-11-24T17:18:44.055Z,11.19
2022-11-24T17:21:15.179Z,11.14
2022-11-24T17:23:42.077Z,11.18
2022-11-24T17:26:12.381Z,11.20
2022-11-24T17:28:39.678Z,11.14
2022-11-24T17:31:18.839Z,11.18
2022-11-24T17:33:45.382Z,11.20
2022-11-24T17:36:11.755Z,11.13
2022-11-24T17:38:38.229Z,11.09
2022-11-24T17:41:05.112Z,11.10
2022-11-24T17:43:36.236Z,11.07
2022-11-24T17:46:18.052Z,11.06
2022-11-24T17:48:47.872Z,10.99
2022-11-24T17:51:16.797Z,10.97
2022-11-24T17:53:45.878Z,10.95
2022-11-24T17:56:14.631Z,10.95
2022-11-24T17:58:44.002Z,10.91
2022-11-24T18:01:12.221Z,10.88
2022-11-24T18:03:39.763Z,10.87
2022-11-24T18:06:14.166Z,10.83
2022-11-24T18:08:43.027Z,10.81
2022-11-24T18:11:16.720Z,10.77
2022-11-24T18:14:00.960Z,10.75
2022-11-24T18:16:30.232Z,10.75
2022-11-24T18:19:14.068Z,10.75
2022-11-24T18:21:42.153Z,10.71
2022-11-24T18:24:10.235Z,10.69
2022-11-24T18:26:37.192Z,10.73
2022-11-24T18:29:03.918Z,10.73
2022-11-24T18:31:31.273Z,10.77
2022-11-24T18:33:57.801Z,10.71
2022-11-24T18:36:30.034Z,10.67
2022-11-24T18:38:57.672Z,10.59
2022-11-24T18:41:25.979Z,10.68
2022-11-24T18:43:52.801Z,10.70
2022-11-24T18:46:19.520Z,10.66
2022-11-24T18:48:46.983Z,10.64
2022-11-24T18:51:17.638Z,10.59
2022-11-24T18:53:45.960Z,10.53
2022-11-24T18:56:15.348Z,10.50
2022-11-24T18:58:42.704Z,10.47
2022-11-24T19:01:13.631Z,10.41
2022-11-24T19:03:48.061Z,10.33
2022-11-24T19:06:19.559Z,10.35
2022-11-24T19:08:46.511Z,10.31
2022-11-24T19:11:18.009Z,10.32
2022-11-24T19:13:44.502Z,10.26
2022-11-24T19:16:12.285Z,10.23
2022-11-24T19:18:38.757Z,10.21
2022-11-24T19:21:05.773Z,10.22
2022-11-24T19:23:32.204Z,10.18
2022-11-24T19:26:03.084Z,10.09
2022-11-24T19:28:30.078Z,10.08
2022-11-24T19:31:08.258Z,10.11
2022-11-24T19:33:35.287Z,10.09
2022-11-24T19:36:07.637Z,10.08
2022-11-24T19:38:35.331Z,10.09
2022-11-24T19:41:06.964Z,10.09
2022-11-24T19:43:34.493Z,10.05
2022-11-24T19:46:08.945Z,10.04
2022-11-24T19:48:40.361Z,10.00
2022-11-24T19:51:10.104Z,9.97
2022-11-24T19:53:36.659Z,9.93
2022-11-24T19:56:05.314Z,9.92
2022-11-24T19:58:32.507Z,9.85
2022-11-24T20:01:14.965Z,9.87
2022-11-24T20:03:43.335Z,9.80
2022-11-24T20:06:12.218Z,9.88
2022-11-24T20:08:39.457Z,9.83
2022-11-24T20:11:12.117Z,9.80
2022-11-24T20:13:40.076Z,9.82
2022-11-24T20:16:11.774Z,9.77
2022-11-24T20:18:42.132Z,9.78
2022-11-24T20:21:17.448Z,9.80
2022-11-24T20:23:45.250Z,9.82
2022-11-24T20:26:19.622Z,9.85
2022-11-24T20:28:47.348Z,9.84
2022-11-24T20:31:16.523Z,9.82
2022-11-24T20:33:43.411Z,9.81
2022-11-24T20:36:18.627Z,9.80
2022-11-24T20:38:49.563Z,9.77
2022-11-24T20:41:21.897Z,9.79
2022-11-24T20:43:49.371Z,9.83
2022-11-24T20:46:24.440Z,9.82
2022-11-24T20:48:53.605Z,9.85
2022-11-24T20:51:22.963Z,9.89
2022-11-24T20:53:50.710Z,9.90
2022-11-24T20:56:20.108Z,9.86
2022-11-24T20:58:46.790Z,9.75
2022-11-24T21:01:16.456Z,9.57
2022-11-24T21:03:46.081Z,9.52
2022-11-24T21:06:13.888Z,9.62
2022-11-24T21:08:42.069Z,9.65
2022-11-24T21:11:11.615Z,9.73
2022-11-24T21:13:40.028Z,9.77
2022-11-24T21:16:19.390Z,9.78
2022-11-24T21:18:47.569Z,9.83
2022-11-24T21:21:14.561Z,9.85
2022-11-24T21:23:40.985Z,9.81
2022-11-24T21:26:13.078Z,9.84
2022-11-24T21:28:44.036Z,9.90
2022-11-24T21:31:16.422Z,9.95
2022-11-24T21:33:52.267Z,9.88
2022-11-24T21:36:21.919Z,9.93
2022-11-24T21:38:55.790Z,9.96
2022-11-24T21:41:23.705Z,10.01
2022-11-24T21:43:50.368Z,10.00
2022-11-24T21:46:17.265Z,10.02
2022-11-24T21:48:43.784Z,10.06
2022-11-24T21:51:15.963Z,10.10
2022-11-24T21:53:42.877Z,10.14
2022-11-24T21:56:20.629Z,10.12
2022-11-24T21:58:48.136Z,10.11
2022-11-24T22:01:16.039Z,10.13
2022-11-24T22:03:42.636Z,10.16
2022-11-24T22:06:09.270Z,10.19
2022-11-24T22:08:36.095Z,10.23
2022-11-24T22:11:08.137Z,10.23
2022-11-24T22:13:34.855Z,10.20
2022-11-24T22:16:03.723Z,10.23
2022-11-24T22:18:32.163Z,10.20
2022-11-24T22:20:58.628Z,10.24
2022-11-24T22:23:25.200Z,10.29
2022-11-24T22:25:51.660Z,10.27
2022-11-24T22:28:18.283Z,10.23
2022-11-24T22:30:44.753Z,10.26
2022-11-24T22:33:13.826Z,10.27
2022-11-24T22:35:40.231Z,10.30
2022-11-24T22:38:06.684Z,10.28
2022-11-24T22:40:33.069Z,10.28
2022-11-24T22:42:59.604Z,10.26
2022-11-24T22:45:26.443Z,10.26
2022-11-24T22:47:56.013Z,10.26
2022-11-24T22:50:22.461Z,10.21
2022-11-24T22:52:50.084Z,10.23
2022-11-24T22:55:16.566Z,10.27
2022-11-24T22:57:47.962Z,10.27
2022-11-24T23:00:15.440Z,10.25
2022-11-24T23:02:41.816Z,10.21
2022-11-24T23:05:08.577Z,10.27
2022-11-24T23:07:35.073Z,10.30
2022-11-24T23:10:02.343Z,10.30
2022-11-24T23:12:28.824Z,10.26
2022-11-24T23:14:55.332Z,10.27
2022-11-24T23:17:21.775Z,10.25
2022-11-24T23:19:48.179Z,10.24
2022-11-24T23:22:14.573Z,10.26
2022-11-24T23:24:40.957Z,10.25
2022-11-24T23:27:07.371Z,10.21
2022-11-24T23:29:33.804Z,10.18
2022-11-24T23:32:00.347Z,10.19
2022-11-24T23:34:26.748Z,10.19
2022-11-24T23:36:53.146Z,10.17
2022-11-24T23:39:19.573Z,10.15
2022-11-24T23:41:45.954Z,10.12
2022-11-24T23:44:12.333Z,10.11
2022-11-24T23:46:38.850Z,10.13
2022-11-24T23:49:05.219Z,10.10
2022-11-24T23:51:33.157Z,10.06
2022-11-24T23:54:00.396Z,10.03
2022-11-24T23:56:31.390Z,10.03
2022-11-24T23:58:58.526Z,10.01
